Dromore, United Kingdom
Current Conditions -  °F | °C
As of 3:20 AM on Tuesday 21 Oct 2014 (Local Time) from EGAA Reporting Station
Broken Clouds Broken Clouds  
Wind Chill: 54°   Ceiling: 2400
Heat Index: 54°   Visibility: 6mi
Dew Point: 50°   Wind: 29mph
Humidity: 88%   Direction: 280°W
Pressure: 29.23"   Gusts: 43mph
Location:  54.41°N, 6.15°W
Report Text: EGAA 210220Z AUTO 28025G37KT 9999 FEW013/// SCT018/// BKN024/// 12/10 Q0990
Loading
Personal Weather Stations






























Interactive Weather Map
Tropical Storm Tracking
New forecast layout! Learn more

10-Day Weather Forecast

Advertisements
Track Severe Weather on mobile